createdAt,value
2023-02-02T00:01:23.960Z,10.10
2023-02-02T00:03:51.064Z,14.47
2023-02-02T00:06:22.152Z,9.20
2023-02-02T00:08:48.947Z,7.03
2023-02-02T00:11:16.588Z,14.40
2023-02-02T00:13:43.170Z,8.57
2023-02-02T00:16:28.504Z,9.90
2023-02-02T00:19:00.622Z,9.80
2023-02-02T00:21:27.595Z,10.40
2023-02-02T00:23:54.034Z,10.70
2023-02-02T00:26:21.517Z,14.23
2023-02-02T00:28:48.459Z,10.83
2023-02-02T00:31:14.906Z,10.20
2023-02-02T00:33:45.631Z,18.00
2023-02-02T00:36:12.105Z,10.40
2023-02-02T00:38:38.470Z,10.07
2023-02-02T00:41:05.323Z,13.50
2023-02-02T00:43:31.705Z,18.60
2023-02-02T00:45:58.361Z,10.50
2023-02-02T00:48:25.885Z,14.27
2023-02-02T00:50:53.308Z,17.33
2023-02-02T00:53:20.302Z,13.30
2023-02-02T00:55:46.739Z,14.80
2023-02-02T00:58:13.133Z,15.00
2023-02-02T01:00:39.858Z,9.77
2023-02-02T01:03:07.037Z,10.40
2023-02-02T01:05:34.492Z,12.60
2023-02-02T01:08:01.164Z,9.80
2023-02-02T01:10:27.599Z,20.50
2023-02-02T01:12:54.385Z,9.30
2023-02-02T01:15:20.881Z,16.23
2023-02-02T01:17:47.300Z,12.80
2023-02-02T01:20:19.955Z,10.33
2023-02-02T01:22:47.159Z,13.90
2023-02-02T01:25:13.808Z,14.77
2023-02-02T01:27:40.308Z,12.90
2023-02-02T01:30:07.515Z,10.40
2023-02-02T01:32:33.948Z,11.57
2023-02-02T01:35:00.419Z,11.60
2023-02-02T01:37:26.796Z,10.10
2023-02-02T01:39:53.176Z,9.70
2023-02-02T01:42:22.167Z,17.97
2023-02-02T01:45:14.347Z,17.83
2023-02-02T01:47:46.163Z,9.20
2023-02-02T01:50:15.193Z,13.40
2023-02-02T01:52:45.930Z,13.60
2023-02-02T01:55:16.735Z,14.80
2023-02-02T01:57:43.089Z,15.20
2023-02-02T02:00:13.510Z,12.70
2023-02-02T02:02:43.154Z,9.10
2023-02-02T02:05:09.961Z,10.77
2023-02-02T02:07:38.785Z,11.67
2023-02-02T02:10:05.676Z,10.13
2023-02-02T02:12:32.144Z,8.57
2023-02-02T02:15:16.858Z,15.30
2023-02-02T02:17:52.205Z,11.03
2023-02-02T02:20:50.703Z,11.20
2023-02-02T02:23:35.532Z,16.50
2023-02-02T02:26:20.506Z,11.17
2023-02-02T02:28:55.656Z,10.97
2023-02-02T02:31:58.889Z,14.57
2023-02-02T02:34:44.135Z,9.63
2023-02-02T02:37:47.329Z,9.20
2023-02-02T02:40:37.049Z,13.70
2023-02-02T02:43:16.120Z,8.80
2023-02-02T02:45:44.620Z,11.47
2023-02-02T02:48:11.569Z,10.60
2023-02-02T02:50:38.303Z,12.83
2023-02-02T02:53:31.027Z,8.20
2023-02-02T02:56:14.781Z,8.87
2023-02-02T02:59:10.946Z,9.33
2023-02-02T03:01:54.586Z,14.73
2023-02-02T03:05:00.500Z,9.77
2023-02-02T03:07:38.317Z,13.60
2023-02-02T03:10:07.667Z,8.37
2023-02-02T03:12:34.367Z,12.10
2023-02-02T03:15:05.561Z,8.43
2023-02-02T03:17:31.992Z,11.30
2023-02-02T03:19:58.397Z,7.60
2023-02-02T03:22:24.836Z,8.07
2023-02-02T03:24:51.249Z,11.93
2023-02-02T03:27:17.756Z,12.77
2023-02-02T03:29:44.238Z,10.67
2023-02-02T03:32:10.879Z,9.00
2023-02-02T03:34:37.269Z,10.37
2023-02-02T03:37:03.731Z,14.83
2023-02-02T03:39:30.147Z,10.73
2023-02-02T03:41:56.549Z,9.60
2023-02-02T03:44:22.941Z,12.40
2023-02-02T03:46:53.663Z,9.53
2023-02-02T03:49:20.824Z,12.60
2023-02-02T03:51:47.533Z,11.63
2023-02-02T03:54:14.796Z,12.30
2023-02-02T03:56:41.197Z,7.10
2023-02-02T03:59:07.629Z,9.23
2023-02-02T04:01:34.280Z,15.43
2023-02-02T04:04:00.828Z,5.90
2023-02-02T04:06:27.304Z,9.10
2023-02-02T04:08:53.737Z,11.83
2023-02-02T04:11:20.152Z,7.77
2023-02-02T04:13:46.597Z,8.50
2023-02-02T04:16:13.057Z,9.87
2023-02-02T04:18:39.490Z,14.50
2023-02-02T04:21:07.651Z,13.77
2023-02-02T04:23:34.376Z,11.33
2023-02-02T04:26:01.119Z,10.17
2023-02-02T04:28:28.385Z,10.77
2023-02-02T04:30:56.148Z,9.50
2023-02-02T04:33:24.254Z,9.80
2023-02-02T04:35:51.168Z,14.53
2023-02-02T04:38:17.656Z,15.93
2023-02-02T04:40:47.018Z,8.57
2023-02-02T04:43:14.027Z,9.93
2023-02-02T04:45:40.620Z,11.43
2023-02-02T04:48:07.063Z,14.17
2023-02-02T04:50:33.650Z,14.40
2023-02-02T04:53:00.204Z,14.03
2023-02-02T04:55:26.863Z,18.57
2023-02-02T04:57:53.451Z,10.37
2023-02-02T05:00:20.227Z,13.57
2023-02-02T05:02:46.670Z,11.77
2023-02-02T05:05:14.273Z,11.00
2023-02-02T05:07:40.910Z,9.60
2023-02-02T05:10:08.949Z,10.30
2023-02-02T05:12:35.661Z,11.97
2023-02-02T05:15:03.495Z,17.30
2023-02-02T05:17:30.044Z,12.67
2023-02-02T05:19:56.588Z,8.63
2023-02-02T05:22:23.018Z,9.87
2023-02-02T05:24:49.491Z,10.13
2023-02-02T05:27:15.916Z,14.60
2023-02-02T05:29:42.300Z,12.90
2023-02-02T05:32:08.825Z,17.03
2023-02-02T05:34:35.270Z,10.57
2023-02-02T05:37:01.667Z,9.70
2023-02-02T05:39:28.197Z,18.60
2023-02-02T05:41:54.589Z,8.80
2023-02-02T05:44:21.142Z,13.60
2023-02-02T05:46:47.628Z,13.23
2023-02-02T05:49:14.422Z,7.40
2023-02-02T05:51:44.797Z,7.30
2023-02-02T05:54:11.174Z,11.30
2023-02-02T05:56:38.021Z,13.33
2023-02-02T05:59:07.378Z,13.77
2023-02-02T06:01:34.269Z,11.80
2023-02-02T06:04:00.752Z,11.03
2023-02-02T06:06:27.495Z,11.70
2023-02-02T06:08:53.883Z,7.30
2023-02-02T06:11:20.366Z,12.67
2023-02-02T06:13:46.999Z,10.93
2023-02-02T06:16:13.949Z,6.77
2023-02-02T06:18:40.460Z,12.73
2023-02-02T06:21:07.202Z,8.50
2023-02-02T06:23:34.675Z,10.80
2023-02-02T06:26:03.420Z,9.30
2023-02-02T06:28:31.422Z,15.30
2023-02-02T06:31:04.654Z,13.40
2023-02-02T06:33:31.251Z,6.27
2023-02-02T06:36:02.168Z,9.10
2023-02-02T06:38:28.860Z,7.00
2023-02-02T06:40:55.977Z,11.33
2023-02-02T06:43:22.397Z,9.73
2023-02-02T06:45:48.789Z,10.40
2023-02-02T06:48:15.204Z,8.40
2023-02-02T06:50:41.672Z,7.33
2023-02-02T06:53:08.078Z,7.83
2023-02-02T06:55:34.605Z,11.03
2023-02-02T06:58:01.680Z,7.50
2023-02-02T07:00:29.853Z,7.40
2023-02-02T07:02:56.490Z,10.03
2023-02-02T07:05:24.230Z,12.47
2023-02-02T07:07:51.298Z,7.43
2023-02-02T07:11:14.056Z,9.50
2023-02-02T07:13:06.975Z,7.20
2023-02-02T07:15:34.475Z,10.00
2023-02-02T07:18:01.198Z,9.53
2023-02-02T07:20:27.898Z,7.63
2023-02-02T07:22:54.290Z,7.50
2023-02-02T07:25:20.655Z,10.10
2023-02-02T07:27:47.900Z,11.60
2023-02-02T07:30:15.326Z,5.10
2023-02-02T07:32:46.683Z,7.10
2023-02-02T07:35:13.067Z,7.07
2023-02-02T07:37:40.138Z,5.83
2023-02-02T07:40:07.708Z,7.37
2023-02-02T07:42:34.137Z,7.33
2023-02-02T07:45:01.207Z,11.87
2023-02-02T07:47:47.543Z,6.40
2023-02-02T07:50:13.959Z,7.37
2023-02-02T07:52:40.436Z,6.80
2023-02-02T07:55:14.503Z,6.53
2023-02-02T07:57:41.417Z,7.63
2023-02-02T08:00:09.268Z,7.00
2023-02-02T08:02:35.851Z,4.50
2023-02-02T08:05:02.336Z,5.53
2023-02-02T08:07:28.768Z,6.27
2023-02-02T08:09:55.131Z,6.13
2023-02-02T08:12:24.811Z,6.00
2023-02-02T08:14:52.026Z,5.90
2023-02-02T08:17:18.720Z,5.37
2023-02-02T08:19:45.144Z,7.73
2023-02-02T08:22:11.629Z,6.17
2023-02-02T08:24:40.504Z,5.83
2023-02-02T08:27:08.237Z,6.60
2023-02-02T08:29:36.611Z,5.20
2023-02-02T08:32:03.678Z,6.53
2023-02-02T08:34:30.229Z,3.00
2023-02-02T08:36:56.802Z,7.13
2023-02-02T08:39:23.285Z,4.83
2023-02-02T08:41:49.794Z,4.93
2023-02-02T08:44:16.371Z,7.20
2023-02-02T08:46:43.336Z,3.40
2023-02-02T08:49:11.978Z,5.17
2023-02-02T08:51:38.523Z,4.27
2023-02-02T08:54:05.029Z,5.67
2023-02-02T08:56:31.491Z,2.90
2023-02-02T08:58:58.731Z,4.50
2023-02-02T09:01:27.828Z,4.40
2023-02-02T09:03:59.179Z,5.90
2023-02-02T09:06:37.520Z,5.40
2023-02-02T09:09:06.510Z,2.87
2023-02-02T09:11:33.017Z,5.30
2023-02-02T09:14:02.054Z,3.90
2023-02-02T09:16:29.084Z,2.37
2023-02-02T09:18:56.270Z,6.63
2023-02-02T09:21:23.366Z,3.70
2023-02-02T09:23:51.531Z,4.73
2023-02-02T09:26:18.008Z,4.20
2023-02-02T09:28:47.558Z,3.50
2023-02-02T09:31:14.909Z,4.50
2023-02-02T09:33:42.305Z,3.90
2023-02-02T09:36:11.457Z,4.93
2023-02-02T09:38:39.267Z,5.67
2023-02-02T09:41:27.541Z,6.63
2023-02-02T09:44:16.473Z,5.70
2023-02-02T09:47:20.448Z,3.80
2023-02-02T09:49:56.393Z,3.93
2023-02-02T09:52:30.346Z,5.73
2023-02-02T09:55:04.772Z,6.47
2023-02-02T09:57:47.080Z,8.30
2023-02-02T10:00:38.294Z,7.13
2023-02-02T10:03:14.027Z,7.10
2023-02-02T10:06:13.769Z,4.67
2023-02-02T10:08:49.027Z,4.50
2023-02-02T10:11:31.057Z,3.90
2023-02-02T10:14:03.104Z,5.20
2023-02-02T10:16:30.857Z,5.23
2023-02-02T10:19:04.615Z,4.23
2023-02-02T10:22:09.622Z,5.10
2023-02-02T10:24:37.056Z,8.40
2023-02-02T10:27:07.122Z,7.83
2023-02-02T10:29:58.439Z,8.23
2023-02-02T10:32:28.101Z,3.70
2023-02-02T10:35:14.464Z,4.20
2023-02-02T10:38:22.370Z,4.80
2023-02-02T10:41:00.924Z,6.37
2023-02-02T10:43:45.700Z,2.93
2023-02-02T10:46:26.111Z,6.13
2023-02-02T10:49:09.926Z,3.40
2023-02-02T10:51:36.492Z,5.63
2023-02-02T10:54:08.998Z,4.00
2023-02-02T10:56:40.493Z,2.37
2023-02-02T10:59:13.150Z,3.10
2023-02-02T11:01:39.631Z,7.03
2023-02-02T11:04:25.031Z,4.43
2023-02-02T11:06:51.883Z,4.00
2023-02-02T11:09:23.133Z,4.50
2023-02-02T11:11:53.204Z,6.40
2023-02-02T11:14:45.432Z,2.60
2023-02-02T11:17:31.027Z,6.30
2023-02-02T11:19:57.732Z,3.60
2023-02-02T11:22:30.284Z,2.60
2023-02-02T11:25:00.246Z,5.00
2023-02-02T11:27:31.666Z,5.40
2023-02-02T11:29:59.909Z,12.53
2023-02-02T11:32:29.507Z,5.20
2023-02-02T11:35:18.236Z,4.40
2023-02-02T11:37:58.609Z,3.17
2023-02-02T11:40:36.940Z,3.60
2023-02-02T11:43:17.230Z,5.40
2023-02-02T11:45:45.313Z,2.93
2023-02-02T11:48:18.355Z,3.77
2023-02-02T11:50:53.780Z,4.33
2023-02-02T11:53:27.160Z,4.43
2023-02-02T11:55:55.287Z,5.20
2023-02-02T11:58:27.921Z,5.30
2023-02-02T12:01:01.726Z,5.60
2023-02-02T12:03:36.783Z,4.27
2023-02-02T12:06:33.458Z,5.60
2023-02-02T12:09:07.155Z,5.20
2023-02-02T12:11:48.262Z,3.60
2023-02-02T12:14:35.122Z,7.80
2023-02-02T12:17:13.628Z,5.57
2023-02-02T12:20:02.719Z,4.67
2023-02-02T12:22:44.395Z,6.13
2023-02-02T12:25:26.959Z,8.00
2023-02-02T12:27:59.641Z,8.20
2023-02-02T12:31:00.074Z,4.57
2023-02-02T12:33:37.885Z,5.73
2023-02-02T12:36:37.961Z,5.37
2023-02-02T12:39:32.532Z,6.30
2023-02-02T12:42:08.957Z,7.50
2023-02-02T12:44:42.876Z,7.17
2023-02-02T12:47:21.353Z,8.77
2023-02-02T12:50:08.186Z,4.77
2023-02-02T12:52:47.057Z,6.43
2023-02-02T12:55:53.867Z,6.50
2023-02-02T12:58:36.699Z,5.63
2023-02-02T13:01:03.221Z,6.27
2023-02-02T13:03:59.603Z,4.50
2023-02-02T13:07:03.047Z,9.63
2023-02-02T13:09:48.438Z,6.70
2023-02-02T13:12:18.637Z,13.20
2023-02-02T13:15:07.631Z,10.47
2023-02-02T13:17:41.612Z,6.47
2023-02-02T13:20:36.106Z,5.07
2023-02-02T13:23:14.544Z,7.80
2023-02-02T13:25:47.524Z,4.60
2023-02-02T13:28:24.794Z,6.23
2023-02-02T13:30:52.746Z,5.87
2023-02-02T13:33:26.137Z,5.20
2023-02-02T13:35:57.959Z,6.97
2023-02-02T13:38:27.444Z,5.47
2023-02-02T13:40:55.946Z,8.40
2023-02-02T13:43:46.997Z,7.53
2023-02-02T13:46:31.614Z,9.93
2023-02-02T13:49:10.929Z,4.70
2023-02-02T13:51:40.336Z,6.30
2023-02-02T13:54:25.283Z,11.27
2023-02-02T13:56:58.903Z,6.20
2023-02-02T13:59:40.261Z,5.10
2023-02-02T14:02:20.733Z,4.77
2023-02-02T14:04:54.904Z,8.40
2023-02-02T14:07:42.810Z,7.10
2023-02-02T14:10:31.689Z,7.23
2023-02-02T14:13:29.867Z,6.87
2023-02-02T14:15:57.959Z,8.70
2023-02-02T14:18:52.226Z,5.13
2023-02-02T14:21:33.924Z,10.67
2023-02-02T14:24:24.633Z,6.37
2023-02-02T14:26:52.835Z,6.33
2023-02-02T14:29:31.785Z,7.50
2023-02-02T14:32:20.903Z,5.13
2023-02-02T14:34:49.360Z,5.27
2023-02-02T14:37:21.704Z,4.47
2023-02-02T14:40:07.181Z,5.33
2023-02-02T14:42:58.056Z,7.50
2023-02-02T14:45:32.566Z,5.93
2023-02-02T14:48:18.536Z,7.17
2023-02-02T14:50:51.632Z,6.93
2023-02-02T14:53:23.713Z,6.47
2023-02-02T14:55:58.014Z,6.53
2023-02-02T14:58:33.993Z,5.13
2023-02-02T15:01:24.924Z,5.63
2023-02-02T15:03:57.302Z,3.17
2023-02-02T15:06:33.008Z,5.63
2023-02-02T15:09:26.637Z,4.77
2023-02-02T15:12:01.296Z,6.53
2023-02-02T15:14:46.887Z,5.70
2023-02-02T15:17:31.417Z,5.90
2023-02-02T15:20:21.058Z,7.43
2023-02-02T15:22:47.590Z,3.50
2023-02-02T15:25:51.610Z,5.80
2023-02-02T15:28:35.720Z,6.00
2023-02-02T15:31:11.363Z,4.30
2023-02-02T15:33:41.504Z,9.87
2023-02-02T15:36:28.321Z,6.70
2023-02-02T15:38:59.666Z,6.40
2023-02-02T15:41:33.985Z,6.60
2023-02-02T15:44:00.950Z,10.47
2023-02-02T15:46:34.258Z,7.53
2023-02-02T15:49:33.399Z,6.53
2023-02-02T15:52:09.994Z,7.43
2023-02-02T15:54:39.623Z,5.60
2023-02-02T15:57:23.914Z,4.20
2023-02-02T15:59:50.535Z,5.40
2023-02-02T16:02:40.843Z,4.70
2023-02-02T16:05:39.557Z,8.10
2023-02-02T16:08:14.025Z,7.33
2023-02-02T16:10:40.477Z,5.10
2023-02-02T16:13:06.995Z,4.03
2023-02-02T16:15:33.520Z,4.23
2023-02-02T16:18:02.196Z,6.67
2023-02-02T16:20:33.058Z,4.50
2023-02-02T16:23:02.231Z,3.70
2023-02-02T16:25:39.889Z,2.80
2023-02-02T16:28:06.551Z,5.60
2023-02-02T16:30:36.967Z,4.60
2023-02-02T16:33:39.261Z,9.93
2023-02-02T16:36:29.820Z,8.30
2023-02-02T16:38:58.279Z,7.73
2023-02-02T16:41:27.872Z,4.43
2023-02-02T16:43:54.780Z,5.20
2023-02-02T16:46:57.314Z,8.47
2023-02-02T16:49:26.622Z,4.07
2023-02-02T16:52:19.922Z,7.33
2023-02-02T16:54:56.990Z,4.90
2023-02-02T16:57:27.378Z,2.67
2023-02-02T16:59:57.384Z,3.50
2023-02-02T17:02:38.502Z,5.40
2023-02-02T17:05:07.768Z,6.63
2023-02-02T17:07:37.154Z,8.07
2023-02-02T17:10:14.644Z,6.83
2023-02-02T17:12:41.110Z,9.40
2023-02-02T17:15:16.476Z,2.87
2023-02-02T17:17:48.551Z,6.00
2023-02-02T17:20:19.248Z,4.97
2023-02-02T17:22:48.980Z,3.57
2023-02-02T17:25:17.850Z,5.50
2023-02-02T17:27:45.232Z,6.10
2023-02-02T17:30:17.519Z,4.47
2023-02-02T17:32:43.990Z,4.53
2023-02-02T17:35:22.384Z,2.67
2023-02-02T17:37:49.540Z,6.30
2023-02-02T17:40:17.429Z,3.93
2023-02-02T17:42:45.647Z,5.90
2023-02-02T17:45:23.017Z,3.90
2023-02-02T17:47:50.999Z,7.20
2023-02-02T17:50:17.783Z,10.53
2023-02-02T17:52:45.780Z,9.60
2023-02-02T17:55:20.116Z,9.07
2023-02-02T17:57:47.386Z,5.60
2023-02-02T18:00:14.992Z,6.03
2023-02-02T18:02:41.540Z,9.27
2023-02-02T18:05:08.448Z,11.67
2023-02-02T18:07:34.905Z,8.10
2023-02-02T18:10:01.331Z,5.83
2023-02-02T18:12:28.175Z,8.10
2023-02-02T18:14:54.605Z,9.17
2023-02-02T18:17:21.184Z,7.10
2023-02-02T18:19:51.085Z,5.27
2023-02-02T18:22:18.381Z,4.80
2023-02-02T18:24:44.979Z,5.53
2023-02-02T18:27:11.415Z,4.47
2023-02-02T18:29:37.835Z,6.30
2023-02-02T18:32:04.316Z,8.70
2023-02-02T18:34:32.821Z,5.20
2023-02-02T18:36:59.588Z,5.43
2023-02-02T18:39:26.430Z,5.00
2023-02-02T18:41:53.048Z,8.03
2023-02-02T18:44:19.795Z,9.00
2023-02-02T18:46:46.337Z,6.73
2023-02-02T18:49:12.770Z,6.40
2023-02-02T18:51:39.356Z,4.90
2023-02-02T18:54:05.750Z,4.30
2023-02-02T18:56:32.480Z,5.23
2023-02-02T18:58:59.541Z,3.53
2023-02-02T19:01:26.530Z,4.30
2023-02-02T19:03:55.299Z,7.90
2023-02-02T19:06:41.328Z,5.90
2023-02-02T19:09:08.466Z,9.13
2023-02-02T19:11:39.192Z,4.70
2023-02-02T19:14:12.448Z,4.43
2023-02-02T19:16:39.359Z,3.50
2023-02-02T19:19:22.599Z,9.30
2023-02-02T19:21:57.858Z,4.87
2023-02-02T19:24:26.813Z,7.10
2023-02-02T19:26:53.936Z,8.10
2023-02-02T19:29:25.630Z,5.70
2023-02-02T19:32:07.439Z,5.20
2023-02-02T19:34:34.318Z,4.40
2023-02-02T19:37:21.507Z,5.20
2023-02-02T19:39:47.931Z,4.40
2023-02-02T19:42:14.297Z,4.77
2023-02-02T19:44:41.964Z,4.63
2023-02-02T19:47:21.461Z,7.23
2023-02-02T19:49:47.900Z,4.70
2023-02-02T19:52:22.530Z,6.57
2023-02-02T19:54:49.650Z,5.30
2023-02-02T19:57:21.251Z,9.43
2023-02-02T19:59:50.159Z,4.53
2023-02-02T20:02:51.853Z,5.73
2023-02-02T20:05:21.228Z,5.07
2023-02-02T20:07:55.676Z,4.03
2023-02-02T20:10:37.974Z,6.03
2023-02-02T20:13:18.505Z,3.80
2023-02-02T20:15:45.346Z,7.47
2023-02-02T20:18:26.276Z,4.80
2023-02-02T20:20:55.428Z,8.53
2023-02-02T20:23:29.849Z,8.70
2023-02-02T20:25:58.022Z,7.97
2023-02-02T20:28:30.180Z,8.03
2023-02-02T20:30:56.664Z,6.90
2023-02-02T20:33:24.786Z,6.90
2023-02-02T20:35:51.250Z,7.03
2023-02-02T20:38:28.528Z,4.70
2023-02-02T20:40:56.509Z,11.53
2023-02-02T20:43:22.930Z,7.73
2023-02-02T20:45:51.040Z,3.67
2023-02-02T20:48:17.727Z,6.87
2023-02-02T20:50:46.638Z,8.03
2023-02-02T20:53:16.381Z,6.67
2023-02-02T20:55:44.642Z,4.40
2023-02-02T20:58:11.536Z,4.93
2023-02-02T21:00:38.549Z,4.70
2023-02-02T21:03:05.072Z,7.63
2023-02-02T21:05:31.572Z,3.63
2023-02-02T21:07:58.029Z,5.33
2023-02-02T21:10:26.196Z,5.47
2023-02-02T21:12:52.942Z,18.10
2023-02-02T21:15:19.492Z,8.20
2023-02-02T21:17:45.925Z,8.93
2023-02-02T21:20:14.816Z,7.70
2023-02-02T21:22:41.331Z,8.93
2023-02-02T21:25:08.786Z,5.43
2023-02-02T21:27:35.770Z,3.83
2023-02-02T21:30:02.382Z,7.87
2023-02-02T21:32:28.809Z,6.77
2023-02-02T21:34:55.241Z,5.30
2023-02-02T21:37:21.745Z,3.97
2023-02-02T21:39:49.492Z,5.50
2023-02-02T21:42:18.803Z,7.53
2023-02-02T21:44:49.701Z,6.13
2023-02-02T21:47:34.812Z,5.60
2023-02-02T21:50:13.804Z,5.20
2023-02-02T21:52:40.343Z,4.00
2023-02-02T21:55:35.491Z,2.90
2023-02-02T21:58:22.487Z,7.87
2023-02-02T22:00:50.075Z,7.43
2023-02-02T22:03:25.953Z,5.20
2023-02-02T22:05:53.599Z,3.40
2023-02-02T22:08:25.205Z,4.93
2023-02-02T22:10:51.768Z,11.00
2023-02-02T22:13:24.806Z,6.20
2023-02-02T22:15:53.094Z,6.70
2023-02-02T22:18:21.645Z,3.40
2023-02-02T22:20:50.600Z,8.30
2023-02-02T22:23:21.540Z,7.33
2023-02-02T22:25:49.754Z,4.47
2023-02-02T22:28:16.156Z,3.60
2023-02-02T22:30:42.887Z,5.27
2023-02-02T22:33:11.383Z,3.10
2023-02-02T22:35:38.112Z,4.47
2023-02-02T22:38:05.413Z,4.00
2023-02-02T22:40:31.825Z,3.70
2023-02-02T22:43:00.261Z,7.10
2023-02-02T22:45:27.165Z,5.00
2023-02-02T22:47:54.126Z,4.60
2023-02-02T22:50:23.349Z,3.80
2023-02-02T22:52:49.941Z,3.67
2023-02-02T22:55:17.240Z,4.70
2023-02-02T22:57:44.077Z,4.80
2023-02-02T23:00:13.852Z,5.20
2023-02-02T23:02:41.623Z,3.70
2023-02-02T23:05:10.350Z,4.33
2023-02-02T23:07:36.982Z,4.10
2023-02-02T23:10:04.144Z,2.83
2023-02-02T23:12:30.890Z,4.73
2023-02-02T23:14:57.254Z,2.80
2023-02-02T23:17:23.709Z,2.67
2023-02-02T23:19:50.274Z,3.07
2023-02-02T23:22:16.723Z,2.43
2023-02-02T23:24:44.412Z,4.07
2023-02-02T23:27:12.912Z,3.50
2023-02-02T23:29:39.807Z,3.50
2023-02-02T23:32:07.127Z,2.53
2023-02-02T23:34:33.700Z,4.40
2023-02-02T23:37:00.153Z,3.67
2023-02-02T23:39:26.527Z,7.83
2023-02-02T23:41:53.031Z,2.40
2023-02-02T23:44:19.441Z,3.83
2023-02-02T23:46:46.241Z,2.63
2023-02-02T23:49:13.019Z,5.40
2023-02-02T23:51:39.797Z,4.93
2023-02-02T23:54:06.537Z,3.03
2023-02-02T23:56:33.208Z,3.10
2023-02-02T23:58:59.586Z,3.70
